sensor_id;sensor_type;location;lat;lon;timestamp;pressure;altitude;pressure_sealevel;temperature;humidity
33161;BME280;19522;45.656;11.302;2023-04-27T00:00:23;98373.81;;;10.07;81.03
33161;BME280;19522;45.656;11.302;2023-04-27T00:02:49;98364.47;;;9.95;80.20
33161;BME280;19522;45.656;11.302;2023-04-27T00:05:14;98379.72;;;10.11;80.11
33161;BME280;19522;45.656;11.302;2023-04-27T00:07:40;98398.34;;;10.14;80.31
33161;BME280;19522;45.656;11.302;2023-04-27T00:10:06;98389.09;;;10.08;80.22
33161;BME280;19522;45.656;11.302;2023-04-27T00:12:32;98399.16;;;10.00;80.53
33161;BME280;19522;45.656;11.302;2023-04-27T00:14:58;98365.09;;;9.82;80.10
33161;BME280;19522;45.656;11.302;2023-04-27T00:17:23;98332.63;;;9.59;80.54
33161;BME280;19522;45.656;11.302;2023-04-27T00:19:49;98373.88;;;9.69;81.47
33161;BME280;19522;45.656;11.302;2023-04-27T00:22:14;98389.88;;;9.79;81.45
33161;BME280;19522;45.656;11.302;2023-04-27T00:24:40;98380.66;;;9.50;82.68
33161;BME280;19522;45.656;11.302;2023-04-27T00:27:06;98396.13;;;9.64;83.12
33161;BME280;19522;45.656;11.302;2023-04-27T00:29:31;98384.78;;;9.46;83.86
33161;BME280;19522;45.656;11.302;2023-04-27T00:31:57;98386.94;;;9.50;83.59
33161;BME280;19522;45.656;11.302;2023-04-27T00:34:22;98383.28;;;9.58;82.03
33161;BME280;19522;45.656;11.302;2023-04-27T00:36:48;98376.69;;;9.61;81.47
33161;BME280;19522;45.656;11.302;2023-04-27T00:39:13;98398.41;;;9.52;82.58
33161;BME280;19522;45.656;11.302;2023-04-27T00:41:39;98377.16;;;9.26;83.39
33161;BME280;19522;45.656;11.302;2023-04-27T00:44:04;98386.69;;;9.37;83.93
33161;BME280;19522;45.656;11.302;2023-04-27T00:46:32;98386.28;;;9.48;83.17
33161;BME280;19522;45.656;11.302;2023-04-27T00:48:58;98373.69;;;9.32;82.99
33161;BME280;19522;45.656;11.302;2023-04-27T00:51:25;98386.47;;;9.47;83.01
33161;BME280;19522;45.656;11.302;2023-04-27T00:53:52;98383.63;;;9.40;83.56
33161;BME280;19522;45.656;11.302;2023-04-27T00:56:18;98382.41;;;9.43;83.39
33161;BME280;19522;45.656;11.302;2023-04-27T00:58:44;98375.56;;;9.32;84.07
33161;BME280;19522;45.656;11.302;2023-04-27T01:01:09;98382.00;;;9.54;82.82
33161;BME280;19522;45.656;11.302;2023-04-27T01:03:35;98378.72;;;9.59;82.79
33161;BME280;19522;45.656;11.302;2023-04-27T01:06:00;98352.41;;;9.44;82.86
33161;BME280;19522;45.656;11.302;2023-04-27T01:08:27;98373.97;;;9.61;82.77
33161;BME280;19522;45.656;11.302;2023-04-27T01:10:53;98342.94;;;9.25;83.63
33161;BME280;19522;45.656;11.302;2023-04-27T01:13:18;98358.09;;;9.34;83.90
33161;BME280;19522;45.656;11.302;2023-04-27T01:15:44;98361.59;;;9.20;84.54
33161;BME280;19522;45.656;11.302;2023-04-27T01:18:10;98311.72;;;8.91;85.50
33161;BME280;19522;45.656;11.302;2023-04-27T01:20:35;98359.56;;;9.22;85.50
33161;BME280;19522;45.656;11.302;2023-04-27T01:23:02;98356.84;;;9.22;85.62
33161;BME280;19522;45.656;11.302;2023-04-27T01:25:28;98332.66;;;8.97;85.62
33161;BME280;19522;45.656;11.302;2023-04-27T01:27:53;98348.44;;;9.17;85.01
33161;BME280;19522;45.656;11.302;2023-04-27T01:30:19;98364.56;;;9.33;84.56
33161;BME280;19522;45.656;11.302;2023-04-27T01:32:46;98344.88;;;9.16;84.92
33161;BME280;19522;45.656;11.302;2023-04-27T01:35:12;98368.44;;;9.54;83.16
33161;BME280;19522;45.656;11.302;2023-04-27T01:37:37;98368.75;;;9.36;83.91
33161;BME280;19522;45.656;11.302;2023-04-27T01:40:03;98368.81;;;9.28;84.00
33161;BME280;19522;45.656;11.302;2023-04-27T01:42:30;98383.03;;;9.30;83.94
33161;BME280;19522;45.656;11.302;2023-04-27T01:44:56;98379.06;;;9.17;84.14
33161;BME280;19522;45.656;11.302;2023-04-27T01:47:21;98400.88;;;9.24;84.22
33161;BME280;19522;45.656;11.302;2023-04-27T01:49:47;98357.28;;;8.87;84.94
33161;BME280;19522;45.656;11.302;2023-04-27T01:52:12;98391.34;;;9.28;83.96
33161;BME280;19522;45.656;11.302;2023-04-27T01:54:38;98392.47;;;9.34;83.55
33161;BME280;19522;45.656;11.302;2023-04-27T01:57:03;98386.91;;;9.35;82.89
33161;BME280;19522;45.656;11.302;2023-04-27T01:59:29;98402.56;;;9.25;82.90
33161;BME280;19522;45.656;11.302;2023-04-27T02:01:54;98407.56;;;9.13;84.14
33161;BME280;19522;45.656;11.302;2023-04-27T02:04:20;98408.25;;;9.07;84.54
33161;BME280;19522;45.656;11.302;2023-04-27T02:06:46;98414.56;;;8.99;85.78
33161;BME280;19522;45.656;11.302;2023-04-27T02:09:11;98403.50;;;8.86;86.21
33161;BME280;19522;45.656;11.302;2023-04-27T02:11:37;98412.44;;;8.55;87.49
33161;BME280;19522;45.656;11.302;2023-04-27T02:14:03;98415.66;;;8.58;88.20
33161;BME280;19522;45.656;11.302;2023-04-27T02:16:34;98415.53;;;8.83;87.69
33161;BME280;19522;45.656;11.302;2023-04-27T02:19:00;98394.19;;;8.57;88.01
33161;BME280;19522;45.656;11.302;2023-04-27T02:21:25;98425.69;;;8.50;88.66
33161;BME280;19522;45.656;11.302;2023-04-27T02:23:52;98420.41;;;8.00;90.61
33161;BME280;19522;45.656;11.302;2023-04-27T02:26:19;98420.03;;;8.03;91.54
33161;BME280;19522;45.656;11.302;2023-04-27T02:28:45;98416.13;;;8.14;90.53
33161;BME280;19522;45.656;11.302;2023-04-27T02:31:12;98431.50;;;8.22;91.12
33161;BME280;19522;45.656;11.302;2023-04-27T02:33:39;98416.53;;;8.51;89.16
33161;BME280;19522;45.656;11.302;2023-04-27T02:36:04;98424.75;;;8.66;88.44
33161;BME280;19522;45.656;11.302;2023-04-27T02:38:30;98427.44;;;8.66;88.02
33161;BME280;19522;45.656;11.302;2023-04-27T02:40:55;98434.28;;;8.53;88.74
33161;BME280;19522;45.656;11.302;2023-04-27T02:43:21;98434.47;;;8.35;89.81
33161;BME280;19522;45.656;11.302;2023-04-27T02:45:46;98442.13;;;8.80;86.95
33161;BME280;19522;45.656;11.302;2023-04-27T02:48:12;98443.84;;;8.72;86.81
33161;BME280;19522;45.656;11.302;2023-04-27T02:50:42;98445.09;;;8.62;87.53
33161;BME280;19522;45.656;11.302;2023-04-27T02:53:08;98410.13;;;8.35;87.88
33161;BME280;19522;45.656;11.302;2023-04-27T02:55:33;98445.78;;;8.47;87.88
33161;BME280;19522;45.656;11.302;2023-04-27T02:57:59;98445.94;;;8.46;88.00
33161;BME280;19522;45.656;11.302;2023-04-27T03:00:25;98449.31;;;8.56;87.42
33161;BME280;19522;45.656;11.302;2023-04-27T03:02:50;98435.16;;;8.37;87.77
33161;BME280;19522;45.656;11.302;2023-04-27T03:05:16;98450.72;;;8.35;89.19
33161;BME280;19522;45.656;11.302;2023-04-27T03:07:41;98450.22;;;8.32;89.11
33161;BME280;19522;45.656;11.302;2023-04-27T03:10:07;98412.59;;;8.05;89.64
33161;BME280;19522;45.656;11.302;2023-04-27T03:12:33;98431.72;;;8.04;89.54
33161;BME280;19522;45.656;11.302;2023-04-27T03:14:59;98425.06;;;8.15;89.45
33161;BME280;19522;45.656;11.302;2023-04-27T03:17:25;98465.09;;;8.52;87.56
33161;BME280;19522;45.656;11.302;2023-04-27T03:19:51;98456.78;;;8.46;87.56
33161;BME280;19522;45.656;11.302;2023-04-27T03:22:17;98461.22;;;8.38;88.44
33161;BME280;19522;45.656;11.302;2023-04-27T03:24:42;98436.53;;;8.25;88.47
33161;BME280;19522;45.656;11.302;2023-04-27T03:27:08;98453.47;;;8.19;89.26
33161;BME280;19522;45.656;11.302;2023-04-27T03:29:33;98460.06;;;8.08;90.33
33161;BME280;19522;45.656;11.302;2023-04-27T03:31:58;98416.69;;;7.85;90.21
33161;BME280;19522;45.656;11.302;2023-04-27T03:34:24;98457.50;;;8.23;89.50
33161;BME280;19522;45.656;11.302;2023-04-27T03:36:49;98448.97;;;7.94;90.37
33161;BME280;19522;45.656;11.302;2023-04-27T03:39:15;98467.19;;;8.01;91.27
33161;BME280;19522;45.656;11.302;2023-04-27T03:41:41;98408.28;;;7.71;90.59
33161;BME280;19522;45.656;11.302;2023-04-27T03:44:06;98464.50;;;8.01;90.28
33161;BME280;19522;45.656;11.302;2023-04-27T03:46:32;98462.31;;;8.13;89.35
33161;BME280;19522;45.656;11.302;2023-04-27T03:48:57;98436.63;;;7.92;89.39
33161;BME280;19522;45.656;11.302;2023-04-27T03:51:23;98468.38;;;8.06;89.82
33161;BME280;19522;45.656;11.302;2023-04-27T03:53:48;98447.94;;;7.95;89.84
33161;BME280;19522;45.656;11.302;2023-04-27T03:56:14;98445.09;;;7.89;89.77
33161;BME280;19522;45.656;11.302;2023-04-27T03:58:40;98459.31;;;7.83;90.93
33161;BME280;19522;45.656;11.302;2023-04-27T04:01:05;98477.53;;;7.89;91.71
33161;BME280;19522;45.656;11.302;2023-04-27T04:03:34;98467.53;;;8.06;90.21
33161;BME280;19522;45.656;11.302;2023-04-27T04:06:00;98470.41;;;8.04;90.49
33161;BME280;19522;45.656;11.302;2023-04-27T04:08:28;98467.91;;;7.86;91.02
33161;BME280;19522;45.656;11.302;2023-04-27T04:10:55;98465.22;;;7.78;92.19
33161;BME280;19522;45.656;11.302;2023-04-27T04:13:21;98465.38;;;7.68;92.68
33161;BME280;19522;45.656;11.302;2023-04-27T04:15:46;98465.88;;;7.80;92.29
33161;BME280;19522;45.656;11.302;2023-04-27T04:18:12;98441.91;;;7.77;91.65
33161;BME280;19522;45.656;11.302;2023-04-27T04:20:37;98412.00;;;7.62;91.29
33161;BME280;19522;45.656;11.302;2023-04-27T04:23:03;98480.72;;;7.92;91.84
33161;BME280;19522;45.656;11.302;2023-04-27T04:25:28;98475.84;;;7.88;92.06
33161;BME280;19522;45.656;11.302;2023-04-27T04:27:54;98486.50;;;7.73;93.01
33161;BME280;19522;45.656;11.302;2023-04-27T04:30:19;98487.00;;;7.68;93.69
33161;BME280;19522;45.656;11.302;2023-04-27T04:32:45;98494.59;;;7.73;93.53
33161;BME280;19522;45.656;11.302;2023-04-27T04:35:10;98483.78;;;7.73;93.23
33161;BME280;19522;45.656;11.302;2023-04-27T04:37:36;98485.66;;;7.64;93.95
33161;BME280;19522;45.656;11.302;2023-04-27T04:40:06;98463.34;;;7.45;94.57
33161;BME280;19522;45.656;11.302;2023-04-27T04:42:37;98490.22;;;7.63;94.98
33161;BME280;19522;45.656;11.302;2023-04-27T04:45:03;98439.53;;;7.32;94.52
33161;BME280;19522;45.656;11.302;2023-04-27T04:47:29;98458.28;;;7.34;94.91
33161;BME280;19522;45.656;11.302;2023-04-27T04:49:58;98492.22;;;7.61;95.14
33161;BME280;19522;45.656;11.302;2023-04-27T04:52:24;98480.22;;;7.47;95.17
33161;BME280;19522;45.656;11.302;2023-04-27T04:54:52;98495.94;;;7.60;94.82
33161;BME280;19522;45.656;11.302;2023-04-27T04:57:18;98508.28;;;7.79;93.09
33161;BME280;19522;45.656;11.302;2023-04-27T04:59:44;98508.28;;;7.71;93.67
33161;BME280;19522;45.656;11.302;2023-04-27T05:02:09;98509.97;;;7.56;94.52
33161;BME280;19522;45.656;11.302;2023-04-27T05:04:35;98513.69;;;7.71;94.05
33161;BME280;19522;45.656;11.302;2023-04-27T05:07:00;98493.41;;;7.42;95.39
33161;BME280;19522;45.656;11.302;2023-04-27T05:09:26;98491.41;;;7.53;95.44
33161;BME280;19522;45.656;11.302;2023-04-27T05:11:51;98514.03;;;7.85;93.83
33161;BME280;19522;45.656;11.302;2023-04-27T05:14:16;98493.44;;;7.92;92.31
33161;BME280;19522;45.656;11.302;2023-04-27T05:16:42;98507.94;;;7.99;92.32
33161;BME280;19522;45.656;11.302;2023-04-27T05:19:07;98491.38;;;7.77;92.81
33161;BME280;19522;45.656;11.302;2023-04-27T05:21:33;98523.69;;;7.87;94.15
33161;BME280;19522;45.656;11.302;2023-04-27T05:23:59;98505.91;;;7.76;94.60
33161;BME280;19522;45.656;11.302;2023-04-27T05:26:24;98533.63;;;7.95;94.32
33161;BME280;19522;45.656;11.302;2023-04-27T05:28:50;98525.53;;;7.78;95.15
33161;BME280;19522;45.656;11.302;2023-04-27T05:31:15;98536.00;;;7.90;95.56
33161;BME280;19522;45.656;11.302;2023-04-27T05:33:41;98513.34;;;7.74;95.79
33161;BME280;19522;45.656;11.302;2023-04-27T05:36:07;98544.31;;;7.88;96.42
33161;BME280;19522;45.656;11.302;2023-04-27T05:38:32;98538.03;;;7.96;97.16
33161;BME280;19522;45.656;11.302;2023-04-27T05:41:00;98514.38;;;7.82;97.00
33161;BME280;19522;45.656;11.302;2023-04-27T05:43:25;98538.03;;;8.13;95.66
33161;BME280;19522;45.656;11.302;2023-04-27T05:45:51;98543.06;;;8.24;95.79
33161;BME280;19522;45.656;11.302;2023-04-27T05:48:17;98549.31;;;8.57;93.61
33161;BME280;19522;45.656;11.302;2023-04-27T05:50:43;98517.72;;;8.50;92.97
33161;BME280;19522;45.656;11.302;2023-04-27T05:53:09;98548.47;;;8.57;93.89
33161;BME280;19522;45.656;11.302;2023-04-27T05:55:34;98543.75;;;8.51;94.75
33161;BME280;19522;45.656;11.302;2023-04-27T05:58:01;98552.53;;;8.53;93.83
33161;BME280;19522;45.656;11.302;2023-04-27T06:00:28;98532.41;;;8.55;92.88
33161;BME280;19522;45.656;11.302;2023-04-27T06:02:53;98544.91;;;9.04;90.50
33161;BME280;19522;45.656;11.302;2023-04-27T06:05:19;98545.31;;;9.25;88.18
33161;BME280;19522;45.656;11.302;2023-04-27T06:07:44;98533.31;;;9.27;88.29
33161;BME280;19522;45.656;11.302;2023-04-27T06:10:10;98548.38;;;9.53;87.64
33161;BME280;19522;45.656;11.302;2023-04-27T06:12:36;98547.78;;;9.43;88.58
33161;BME280;19522;45.656;11.302;2023-04-27T06:15:02;98524.25;;;9.35;88.26
33161;BME280;19522;45.656;11.302;2023-04-27T06:17:34;98533.75;;;9.62;87.30
33161;BME280;19522;45.656;11.302;2023-04-27T06:19:59;98524.22;;;9.90;84.89
33161;BME280;19522;45.656;11.302;2023-04-27T06:22:25;98525.56;;;10.09;83.33
33161;BME280;19522;45.656;11.302;2023-04-27T06:24:51;98530.56;;;10.20;83.28
33161;BME280;19522;45.656;11.302;2023-04-27T06:27:16;98520.91;;;10.03;83.51
33161;BME280;19522;45.656;11.302;2023-04-27T06:29:42;98525.94;;;10.44;82.17
33161;BME280;19522;45.656;11.302;2023-04-27T06:32:07;98531.88;;;10.48;82.18
33161;BME280;19522;45.656;11.302;2023-04-27T06:34:33;98538.91;;;10.72;82.47
33161;BME280;19522;45.656;11.302;2023-04-27T06:36:59;98541.00;;;11.06;80.31
33161;BME280;19522;45.656;11.302;2023-04-27T06:39:25;98537.38;;;11.51;77.51
33161;BME280;19522;45.656;11.302;2023-04-27T06:41:50;98535.25;;;11.90;75.87
33161;BME280;19522;45.656;11.302;2023-04-27T06:44:16;98542.56;;;12.32;74.22
33161;BME280;19522;45.656;11.302;2023-04-27T06:46:41;98490.72;;;12.47;71.28
33161;BME280;19522;45.656;11.302;2023-04-27T06:49:07;98534.47;;;13.16;69.38
33161;BME280;19522;45.656;11.302;2023-04-27T06:51:32;98526.38;;;13.36;67.17
33161;BME280;19522;45.656;11.302;2023-04-27T06:53:58;98534.28;;;13.80;66.08
33161;BME280;19522;45.656;11.302;2023-04-27T06:56:23;98521.31;;;14.09;64.30
33161;BME280;19522;45.656;11.302;2023-04-27T06:58:48;98517.28;;;14.31;62.13
33161;BME280;19522;45.656;11.302;2023-04-27T07:01:14;98525.06;;;14.75;61.34
33161;BME280;19522;45.656;11.302;2023-04-27T07:03:40;98530.47;;;14.95;59.20
33161;BME280;19522;45.656;11.302;2023-04-27T07:06:05;98489.84;;;14.99;56.06
33161;BME280;19522;45.656;11.302;2023-04-27T07:08:31;98534.09;;;15.41;54.04
33161;BME280;19522;45.656;11.302;2023-04-27T07:10:56;98503.13;;;15.40;54.12
33161;BME280;19522;45.656;11.302;2023-04-27T07:13:21;98532.63;;;15.77;53.48
33161;BME280;19522;45.656;11.302;2023-04-27T07:15:47;98525.78;;;15.54;54.31
33161;BME280;19522;45.656;11.302;2023-04-27T07:18:12;98520.94;;;15.56;52.74
33161;BME280;19522;45.656;11.302;2023-04-27T07:20:39;98530.44;;;15.93;51.42
33161;BME280;19522;45.656;11.302;2023-04-27T07:23:05;98525.50;;;16.08;50.73
33161;BME280;19522;45.656;11.302;2023-04-27T07:25:31;98525.19;;;15.52;50.71
33161;BME280;19522;45.656;11.302;2023-04-27T07:27:57;98519.38;;;15.35;49.38
33161;BME280;19522;45.656;11.302;2023-04-27T07:30:23;98512.56;;;15.51;49.23
33161;BME280;19522;45.656;11.302;2023-04-27T07:32:49;98470.94;;;15.36;49.24
33161;BME280;19522;45.656;11.302;2023-04-27T07:35:18;98522.88;;;15.49;47.15
33161;BME280;19522;45.656;11.302;2023-04-27T07:37:44;98514.50;;;15.76;44.15
33161;BME280;19522;45.656;11.302;2023-04-27T07:40:10;98485.84;;;15.47;45.54
33161;BME280;19522;45.656;11.302;2023-04-27T07:42:41;98517.13;;;15.64;44.21
33161;BME280;19522;45.656;11.302;2023-04-27T07:45:08;98500.78;;;15.44;45.11
33161;BME280;19522;45.656;11.302;2023-04-27T07:47:34;98507.63;;;15.28;45.06
33161;BME280;19522;45.656;11.302;2023-04-27T07:49:59;98498.38;;;15.29;47.39
33161;BME280;19522;45.656;11.302;2023-04-27T07:52:25;98519.81;;;15.71;45.65
33161;BME280;19522;45.656;11.302;2023-04-27T07:54:50;98526.72;;;15.87;44.77
33161;BME280;19522;45.656;11.302;2023-04-27T07:57:16;98516.53;;;15.94;44.25
33161;BME280;19522;45.656;11.302;2023-04-27T07:59:42;98514.31;;;16.10;43.27
33161;BME280;19522;45.656;11.302;2023-04-27T08:02:07;98521.84;;;16.14;42.55
33161;BME280;19522;45.656;11.302;2023-04-27T08:04:33;98517.16;;;16.22;42.84
33161;BME280;19522;45.656;11.302;2023-04-27T08:06:58;98515.94;;;16.17;42.54
33161;BME280;19522;45.656;11.302;2023-04-27T08:09:24;98507.34;;;16.14;43.08
33161;BME280;19522;45.656;11.302;2023-04-27T08:11:50;98488.88;;;16.02;42.17
33161;BME280;19522;45.656;11.302;2023-04-27T08:14:16;98527.66;;;15.99;42.31
33161;BME280;19522;45.656;11.302;2023-04-27T08:16:42;98522.28;;;16.11;41.40
33161;BME280;19522;45.656;11.302;2023-04-27T08:19:09;98524.09;;;16.24;40.54
33161;BME280;19522;45.656;11.302;2023-04-27T08:21:35;98518.84;;;16.23;41.93
33161;BME280;19522;45.656;11.302;2023-04-27T08:24:01;98516.38;;;16.14;40.93
33161;BME280;19522;45.656;11.302;2023-04-27T08:26:27;98519.63;;;16.30;39.87
33161;BME280;19522;45.656;11.302;2023-04-27T08:28:52;98518.22;;;16.46;40.75
33161;BME280;19522;45.656;11.302;2023-04-27T08:31:18;98518.09;;;17.03;41.86
33161;BME280;19522;45.656;11.302;2023-04-27T08:33:43;98457.41;;;16.93;39.71
33161;BME280;19522;45.656;11.302;2023-04-27T08:36:09;98519.38;;;17.01;36.27
33161;BME280;19522;45.656;11.302;2023-04-27T08:38:35;98506.66;;;17.06;35.86
33161;BME280;19522;45.656;11.302;2023-04-27T08:41:00;98509.09;;;17.15;34.98
33161;BME280;19522;45.656;11.302;2023-04-27T08:43:26;98512.50;;;16.91;33.91
33161;BME280;19522;45.656;11.302;2023-04-27T08:45:51;98505.81;;;16.62;33.17
33161;BME280;19522;45.656;11.302;2023-04-27T08:48:17;98529.81;;;16.66;35.82
33161;BME280;19522;45.656;11.302;2023-04-27T08:50:44;98521.97;;;16.70;34.50
33161;BME280;19522;45.656;11.302;2023-04-27T08:53:18;98524.25;;;16.55;35.47
33161;BME280;19522;45.656;11.302;2023-04-27T08:55:46;98529.16;;;16.46;35.29
33161;BME280;19522;45.656;11.302;2023-04-27T08:58:12;98515.56;;;16.39;33.59
33161;BME280;19522;45.656;11.302;2023-04-27T09:00:40;98531.22;;;16.50;32.74
33161;BME280;19522;45.656;11.302;2023-04-27T09:03:23;98531.75;;;16.85;32.67
33161;BME280;19522;45.656;11.302;2023-04-27T09:05:49;98529.81;;;17.10;33.05
33161;BME280;19522;45.656;11.302;2023-04-27T09:08:15;98521.63;;;16.85;30.99
33161;BME280;19522;45.656;11.302;2023-04-27T09:10:49;98532.00;;;16.83;32.54
33161;BME280;19522;45.656;11.302;2023-04-27T09:13:15;98473.97;;;16.42;32.01
33161;BME280;19522;45.656;11.302;2023-04-27T09:15:45;98522.44;;;16.67;30.52
33161;BME280;19522;45.656;11.302;2023-04-27T09:18:17;98537.31;;;16.78;33.53
33161;BME280;19522;45.656;11.302;2023-04-27T09:20:45;98531.75;;;16.85;32.80
33161;BME280;19522;45.656;11.302;2023-04-27T09:23:33;98509.56;;;16.67;33.52
33161;BME280;19522;45.656;11.302;2023-04-27T09:25:59;98523.22;;;16.74;32.75
33161;BME280;19522;45.656;11.302;2023-04-27T09:28:26;98526.72;;;16.81;33.55
33161;BME280;19522;45.656;11.302;2023-04-27T09:30:56;98519.72;;;16.86;31.92
33161;BME280;19522;45.656;11.302;2023-04-27T09:33:30;98498.84;;;16.66;33.43
33161;BME280;19522;45.656;11.302;2023-04-27T09:35:57;98517.97;;;16.91;31.33
33161;BME280;19522;45.656;11.302;2023-04-27T09:38:23;98515.25;;;16.91;32.86
33161;BME280;19522;45.656;11.302;2023-04-27T09:40:51;98520.81;;;17.03;33.05
33161;BME280;19522;45.656;11.302;2023-04-27T09:43:17;98522.50;;;17.23;33.95
33161;BME280;19522;45.656;11.302;2023-04-27T09:45:43;98526.69;;;17.07;36.34
33161;BME280;19522;45.656;11.302;2023-04-27T09:48:09;98516.16;;;17.22;35.60
33161;BME280;19522;45.656;11.302;2023-04-27T09:50:37;98510.97;;;17.14;34.29
33161;BME280;19522;45.656;11.302;2023-04-27T09:53:13;98514.41;;;17.09;34.13
33161;BME280;19522;45.656;11.302;2023-04-27T09:55:48;98491.34;;;16.98;36.32
33161;BME280;19522;45.656;11.302;2023-04-27T09:58:36;98499.78;;;17.16;34.86
33161;BME280;19522;45.656;11.302;2023-04-27T10:01:20;98504.91;;;17.12;35.29
33161;BME280;19522;45.656;11.302;2023-04-27T10:07:12;98499.06;;;17.39;34.53
33161;BME280;19522;45.656;11.302;2023-04-27T10:12:26;98499.78;;;17.34;34.54
33161;BME280;19522;45.656;11.302;2023-04-27T10:14:56;98472.16;;;17.29;35.04
33161;BME280;19522;45.656;11.302;2023-04-27T10:17:34;98498.50;;;17.49;35.60
33161;BME280;19522;45.656;11.302;2023-04-27T10:20:05;98498.69;;;17.35;34.12
33161;BME280;19522;45.656;11.302;2023-04-27T10:22:38;98501.63;;;17.03;35.05
33161;BME280;19522;45.656;11.302;2023-04-27T10:25:17;98495.75;;;17.18;34.14
33161;BME280;19522;45.656;11.302;2023-04-27T10:27:47;98484.31;;;17.21;34.71
33161;BME280;19522;45.656;11.302;2023-04-27T10:30:16;98495.06;;;17.23;34.79
33161;BME280;19522;45.656;11.302;2023-04-27T10:32:53;98496.59;;;17.00;35.91
33161;BME280;19522;45.656;11.302;2023-04-27T10:35:19;98498.16;;;17.26;35.46
33161;BME280;19522;45.656;11.302;2023-04-27T10:37:46;98473.94;;;17.23;35.30
33161;BME280;19522;45.656;11.302;2023-04-27T10:40:12;98498.41;;;17.55;36.51
33161;BME280;19522;45.656;11.302;2023-04-27T10:42:43;98488.13;;;17.51;34.07
33161;BME280;19522;45.656;11.302;2023-04-27T10:45:10;98474.78;;;17.24;34.37
33161;BME280;19522;45.656;11.302;2023-04-27T10:47:42;98488.78;;;17.34;33.69
33161;BME280;19522;45.656;11.302;2023-04-27T10:50:11;98490.34;;;17.42;34.45
33161;BME280;19522;45.656;11.302;2023-04-27T10:52:43;98436.53;;;16.92;34.39
33161;BME280;19522;45.656;11.302;2023-04-27T10:55:21;98492.56;;;17.52;34.43
33161;BME280;19522;45.656;11.302;2023-04-27T10:57:48;98491.66;;;17.39;35.26
33161;BME280;19522;45.656;11.302;2023-04-27T11:00:24;98486.34;;;17.44;33.63
33161;BME280;19522;45.656;11.302;2023-04-27T11:02:52;98494.97;;;17.60;33.78
33161;BME280;19522;45.656;11.302;2023-04-27T11:05:23;98483.19;;;17.71;34.76
33161;BME280;19522;45.656;11.302;2023-04-27T11:08:11;98459.47;;;17.89;34.50
33161;BME280;19522;45.656;11.302;2023-04-27T11:10:38;98484.75;;;18.10;34.52
33161;BME280;19522;45.656;11.302;2023-04-27T11:13:17;98481.28;;;18.02;33.42
33161;BME280;19522;45.656;11.302;2023-04-27T11:18:08;98473.09;;;17.84;35.72
33161;BME280;19522;45.656;11.302;2023-04-27T11:20:35;98469.25;;;17.85;34.90
33161;BME280;19522;45.656;11.302;2023-04-27T11:23:00;98465.91;;;17.83;34.35
33161;BME280;19522;45.656;11.302;2023-04-27T11:25:27;98461.75;;;17.92;34.49
33161;BME280;19522;45.656;11.302;2023-04-27T11:27:53;98452.38;;;18.12;33.45
33161;BME280;19522;45.656;11.302;2023-04-27T11:30:20;98454.53;;;18.33;34.54
33161;BME280;19522;45.656;11.302;2023-04-27T11:32:46;98461.19;;;18.02;34.20
33161;BME280;19522;45.656;11.302;2023-04-27T11:35:12;98476.03;;;18.13;35.25
33161;BME280;19522;45.656;11.302;2023-04-27T11:37:38;98450.72;;;18.46;36.65
33161;BME280;19522;45.656;11.302;2023-04-27T11:40:04;98462.44;;;18.53;34.47
33161;BME280;19522;45.656;11.302;2023-04-27T11:42:33;98467.44;;;18.45;34.36
33161;BME280;19522;45.656;11.302;2023-04-27T11:44:59;98464.47;;;18.58;34.58
33161;BME280;19522;45.656;11.302;2023-04-27T11:47:27;98474.13;;;18.01;34.14
33161;BME280;19522;45.656;11.302;2023-04-27T11:49:55;98469.13;;;18.22;34.13
33161;BME280;19522;45.656;11.302;2023-04-27T11:52:26;98450.59;;;18.41;33.98
33161;BME280;19522;45.656;11.302;2023-04-27T11:54:53;98453.44;;;18.70;33.26
33161;BME280;19522;45.656;11.302;2023-04-27T11:57:31;98459.41;;;18.79;33.25
33161;BME280;19522;45.656;11.302;2023-04-27T12:00:04;98459.97;;;18.81;34.92
33161;BME280;19522;45.656;11.302;2023-04-27T12:02:36;98416.75;;;18.52;33.39
33161;BME280;19522;45.656;11.302;2023-04-27T12:05:03;98453.56;;;18.63;32.75
33161;BME280;19522;45.656;11.302;2023-04-27T12:07:29;98411.94;;;18.72;32.97
33161;BME280;19522;45.656;11.302;2023-04-27T12:09:58;98385.19;;;18.55;34.34
33161;BME280;19522;45.656;11.302;2023-04-27T12:12:24;98457.59;;;18.84;33.06
33161;BME280;19522;45.656;11.302;2023-04-27T12:14:53;98426.19;;;18.68;32.77
33161;BME280;19522;45.656;11.302;2023-04-27T12:17:19;98455.84;;;19.19;33.60
33161;BME280;19522;45.656;11.302;2023-04-27T12:19:45;98448.78;;;18.71;33.42
33161;BME280;19522;45.656;11.302;2023-04-27T12:22:13;98457.34;;;18.86;35.41
33161;BME280;19522;45.656;11.302;2023-04-27T12:24:41;98467.13;;;19.18;34.73
33161;BME280;19522;45.656;11.302;2023-04-27T12:27:09;98444.81;;;18.78;32.71
33161;BME280;19522;45.656;11.302;2023-04-27T12:29:35;98469.94;;;18.94;34.01
33161;BME280;19522;45.656;11.302;2023-04-27T12:32:01;98470.75;;;18.82;33.66
33161;BME280;19522;45.656;11.302;2023-04-27T12:34:27;98467.22;;;19.23;34.45
33161;BME280;19522;45.656;11.302;2023-04-27T12:36:52;98445.28;;;19.28;34.08
33161;BME280;19522;45.656;11.302;2023-04-27T12:39:19;98421.06;;;19.13;34.11
33161;BME280;19522;45.656;11.302;2023-04-27T12:41:48;98464.28;;;19.00;33.83
33161;BME280;19522;45.656;11.302;2023-04-27T12:44:16;98463.59;;;18.93;34.54
33161;BME280;19522;45.656;11.302;2023-04-27T12:46:42;98453.06;;;18.78;33.68
33161;BME280;19522;45.656;11.302;2023-04-27T12:49:09;98455.63;;;19.21;36.02
33161;BME280;19522;45.656;11.302;2023-04-27T12:51:35;98454.38;;;18.99;33.90
33161;BME280;19522;45.656;11.302;2023-04-27T12:54:05;98463.03;;;19.20;34.53
33161;BME280;19522;45.656;11.302;2023-04-27T12:56:31;98465.22;;;19.06;33.23
33161;BME280;19522;45.656;11.302;2023-04-27T12:58:57;98464.03;;;18.90;34.93
33161;BME280;19522;45.656;11.302;2023-04-27T13:01:24;98461.59;;;18.65;33.68